Strona główna
METAR-TAF:

METAR-TAF

Lotnisko :

Angoulême, Francja

Szerokość geograficzna: 45-43-46N, Długość geograficzna: 00-13-08E, wysokość: 132 m

Aktualna obserwacja pogody

Raport powstał 41 minut temu, godzina 08:00 UTC
Cisza
Temperatura 3°C
Wilgotność 93%
Ciśnienie 1008 hPa
Widzialność 10 km lub więcej
Mało chmury na wysokości 4900 ft
Rozproszone chmury na wysokości 17000 ft

METAR: LFBU 250800Z AUTO 00000KT 9999 FEW049 SCT170 03/02 Q1008 NOSIG

czas: 09:41 (08:41 UTC)

Prognoza

Raport powstał 3 godziny i 41 minut temu, godzina 05:00 UTC
Prognoza ważna od 25 godzina 06 UTC do 26 godzina 06 UTC
Wiatr 5 kt od zachodnio-południowy zachód
Widzialność 10 km lub więcej
Brak chmur poniżej 1500 m i brak chmur cumulonimbus
Stopniowe zmiany
od 25 godzina 10 UTC do 25 godzina 12 UTC
Wiatr 10 kt od północno-północny zachód
Stopniowe zmiany
od 25 godzina 21 UTC do 25 godzina 23 UTC
Wiatr 3 kt z kierunków zmiennych

TAF: LFBU 250500Z 2506/2606 25005KT CAVOK BECMG 2510/2512 33010KT BECMG 2521/2523 VRB03KT

Obserwacja i prognoza pogody dla ponad 4000 lotnisk (raport METAR i TAF).

Dostępne stacje oznaczono żółtymi i czerwonymi punktami na mapie.

Najedź kursorem aby zobaczyć nazwę stacji.

Kliknij aby zobaczyć obserwacje i prognozy pogody.

Aby zmienić mapę: kliknij na zielony przycisk z czarnym krzyżykiem, aby powiększyć; na zielony przycisk z myślnikiem, aby pomniejszyć; na zielone strzałki, aby przejść do map sąsiednich.


METAR-TAF: